Paulistana, Brazil
Current Conditions -  °F | °C
As of 10:00 AM on Friday 19 Dec 2014 (Local Time) from SBPL Reporting Station
Broken Clouds Broken Clouds  
Wind Chill: 88°   Ceiling: 2800
Heat Index: 96°   Visibility: 6mi
Dew Point: 73°   Wind: 9mph
Humidity: 62%   Direction: 100°E
Pressure: 29.91"   Gusts: NA
Location:  8.14°S, 41.15°W
Report Text: SBPL 191300Z 10008KT 9999 BKN028 31/23 Q1013
Loading
Personal Weather Stations






























Interactive Weather Map New forecast layout! Learn more

10-Day Weather Forecast

Advertisements
Track Severe Weather on mobile